createdAt,value
2018-07-14T00:00:50.429Z,52.80
2018-07-14T00:01:56.755Z,52.80
2018-07-14T00:03:00.148Z,52.90
2018-07-14T00:04:03.555Z,53.00
2018-07-14T00:05:08.056Z,53.10
2018-07-14T00:06:13.020Z,53.10
2018-07-14T00:07:16.435Z,53.20
2018-07-14T00:08:19.823Z,53.20
2018-07-14T00:09:23.209Z,53.30
2018-07-14T00:10:31.385Z,53.30
2018-07-14T00:11:34.991Z,53.40
2018-07-14T00:12:38.390Z,53.30
2018-07-14T00:13:41.907Z,53.40
2018-07-14T00:16:52.119Z,53.60
2018-07-14T00:17:55.501Z,53.70
2018-07-14T00:18:58.871Z,53.90
2018-07-14T00:20:02.266Z,53.90
2018-07-14T00:21:07.798Z,54.00
2018-07-14T00:22:11.230Z,54.00
2018-07-14T00:23:14.615Z,54.10
2018-07-14T00:24:18.039Z,54.20
2018-07-14T00:26:30.787Z,54.20
2018-07-14T00:27:34.186Z,54.30
2018-07-14T00:28:37.564Z,54.30
2018-07-14T00:29:40.955Z,54.30
2018-07-14T00:30:45.450Z,54.40
2018-07-14T00:31:48.851Z,54.50
2018-07-14T00:32:52.237Z,54.60
2018-07-14T00:33:55.627Z,54.70
2018-07-14T00:34:59.039Z,54.80
2018-07-14T00:36:03.458Z,54.90
2018-07-14T00:37:06.847Z,55.10
2018-07-14T00:38:10.240Z,55.20
2018-07-14T00:39:13.615Z,55.40
2018-07-14T00:40:18.075Z,55.50
2018-07-14T00:41:22.431Z,55.50
2018-07-14T00:42:25.827Z,55.70
2018-07-14T00:43:29.206Z,55.80
2018-07-14T00:44:32.592Z,55.90
2018-07-14T00:45:37.020Z,56.00
2018-07-14T00:46:40.432Z,56.00
2018-07-14T00:47:43.815Z,56.10
2018-07-14T00:48:47.203Z,56.20
2018-07-14T00:49:50.631Z,56.20
2018-07-14T00:50:55.044Z,56.30
2018-07-14T00:51:58.592Z,56.40
2018-07-14T00:53:02.088Z,56.40
2018-07-14T00:54:05.467Z,56.50
2018-07-14T00:55:10.603Z,56.50
2018-07-14T00:56:15.129Z,56.60
2018-07-14T00:57:18.588Z,56.70
2018-07-14T00:58:21.971Z,56.80
2018-07-14T00:59:25.348Z,56.90
2018-07-14T01:00:29.845Z,56.90
2018-07-14T01:01:33.380Z,57.00
2018-07-14T01:02:36.763Z,57.10
2018-07-14T01:03:40.148Z,57.10
2018-07-14T01:04:43.535Z,57.10
2018-07-14T01:05:47.889Z,57.20
2018-07-14T01:06:51.294Z,57.20
2018-07-14T01:07:54.683Z,57.30
2018-07-14T01:08:58.195Z,57.30
2018-07-14T01:10:01.588Z,57.40
2018-07-14T01:11:06.764Z,57.40
2018-07-14T01:12:10.195Z,57.50
2018-07-14T01:13:13.579Z,57.50
2018-07-14T01:14:16.963Z,57.60
2018-07-14T01:15:21.479Z,57.70
2018-07-14T01:16:26.494Z,57.70
2018-07-14T01:17:29.904Z,57.80
2018-07-14T01:18:33.291Z,57.90
2018-07-14T01:19:36.723Z,58.00
2018-07-14T01:20:41.204Z,58.10
2018-07-14T01:21:44.647Z,58.20
2018-07-14T01:22:48.052Z,58.30
2018-07-14T01:23:51.440Z,58.30
2018-07-14T01:24:54.838Z,58.40
2018-07-14T01:25:59.258Z,58.50
2018-07-14T01:27:02.732Z,58.60
2018-07-14T01:28:06.174Z,58.70
2018-07-14T01:29:09.547Z,58.80
2018-07-14T01:31:17.999Z,58.90
2018-07-14T01:32:21.811Z,59.00
2018-07-14T01:33:25.200Z,59.00
2018-07-14T01:34:28.574Z,59.10
2018-07-14T01:35:33.642Z,59.20
2018-07-14T01:36:37.053Z,59.30
2018-07-14T01:37:40.455Z,59.30
2018-07-14T01:38:43.839Z,59.40
2018-07-14T01:39:47.229Z,59.50
2018-07-14T01:40:52.582Z,59.60
2018-07-14T01:41:55.979Z,59.60
2018-07-14T01:42:59.416Z,59.80
2018-07-14T01:44:02.804Z,60.00
2018-07-14T01:45:07.215Z,60.10
2018-07-14T01:46:11.725Z,60.30
2018-07-14T01:47:15.191Z,60.40
2018-07-14T01:49:21.705Z,60.70
2018-07-14T01:50:26.166Z,60.90
2018-07-14T01:51:30.123Z,60.90
2018-07-14T01:52:33.515Z,61.10
2018-07-14T01:53:36.915Z,61.20
2018-07-14T01:54:40.324Z,61.30
2018-07-14T01:55:44.804Z,61.40
2018-07-14T01:56:48.191Z,61.60
2018-07-14T01:57:51.570Z,61.60
2018-07-14T01:58:54.972Z,61.90
2018-07-14T01:59:58.351Z,62.10
2018-07-14T02:01:02.844Z,62.30
2018-07-14T02:02:06.281Z,62.40
2018-07-14T02:03:09.663Z,62.50
2018-07-14T02:04:13.123Z,62.60
2018-07-14T02:05:17.573Z,62.70
2018-07-14T02:06:21.953Z,62.80
2018-07-14T02:07:25.370Z,62.90
2018-07-14T02:08:28.753Z,63.00
2018-07-14T02:09:32.156Z,63.10
2018-07-14T02:10:36.719Z,63.10
2018-07-14T02:11:40.143Z,63.20
2018-07-14T02:12:43.555Z,63.30
2018-07-14T02:13:47.124Z,63.50
2018-07-14T02:14:50.551Z,63.70
2018-07-14T02:15:54.925Z,63.80
2018-07-14T02:16:58.437Z,63.90
2018-07-14T02:18:01.820Z,64.00
2018-07-14T02:19:05.203Z,64.10
2018-07-14T02:20:09.287Z,64.20
2018-07-14T02:21:13.900Z,64.40
2018-07-14T02:22:17.311Z,64.50
2018-07-14T02:23:20.699Z,64.60
2018-07-14T02:24:24.187Z,64.70
2018-07-14T02:25:29.641Z,64.80
2018-07-14T02:27:36.135Z,65.10
2018-07-14T02:29:42.912Z,65.30
2018-07-14T02:31:50.621Z,65.40
2018-07-14T02:32:54.002Z,65.50
2018-07-14T02:33:57.388Z,65.60
2018-07-14T02:35:00.787Z,65.80
2018-07-14T02:36:05.420Z,65.90
2018-07-14T02:38:11.940Z,66.10
2018-07-14T02:39:15.322Z,66.20
2018-07-14T02:40:19.863Z,66.40
2018-07-14T02:41:24.379Z,66.50
2018-07-14T02:42:27.806Z,66.60
2018-07-14T02:43:31.203Z,66.80
2018-07-14T02:44:34.583Z,66.80
2018-07-14T02:45:39.245Z,66.90
2018-07-14T02:46:42.708Z,66.90
2018-07-14T02:47:46.095Z,67.10
2018-07-14T02:49:52.555Z,67.30
2018-07-14T02:50:57.835Z,67.40
2018-07-14T02:52:01.328Z,67.50
2018-07-14T02:53:05.031Z,67.70
2018-07-14T02:54:08.412Z,67.70
2018-07-14T02:55:12.847Z,67.90
2018-07-14T02:57:20.080Z,68.10
2018-07-14T02:58:23.475Z,68.10
2018-07-14T02:59:26.858Z,68.20
2018-07-14T03:00:31.287Z,69.00
2018-07-14T03:01:34.888Z,68.40
2018-07-14T03:02:38.301Z,68.50
2018-07-14T03:03:41.739Z,68.70
2018-07-14T03:04:45.177Z,68.60
2018-07-14T03:06:52.459Z,68.80
2018-07-14T03:08:59.183Z,69.00
2018-07-14T03:10:02.963Z,69.10
2018-07-14T03:11:07.565Z,69.00
2018-07-14T03:12:11.028Z,69.10
2018-07-14T03:15:21.761Z,69.40
2018-07-14T03:17:28.940Z,69.40
2018-07-14T03:18:32.319Z,69.80
2018-07-14T03:19:35.985Z,69.90
2018-07-14T03:20:40.352Z,70.10
2018-07-14T03:21:43.831Z,70.20
2018-07-14T03:22:47.284Z,70.10
2018-07-14T03:23:50.663Z,70.20
2018-07-14T03:24:54.048Z,70.20
2018-07-14T03:25:58.416Z,70.50
2018-07-14T03:27:01.824Z,70.80
2018-07-14T03:29:08.535Z,71.20
2018-07-14T03:30:13.015Z,71.40
2018-07-14T03:31:17.440Z,71.50
2018-07-14T03:32:20.864Z,71.70
2018-07-14T03:33:30.811Z,71.80
2018-07-14T03:34:34.246Z,71.90
2018-07-14T03:35:38.735Z,72.00
2018-07-14T03:36:42.195Z,72.10
2018-07-14T03:37:45.572Z,72.10
2018-07-14T03:38:48.975Z,72.20
2018-07-14T03:39:52.351Z,72.30
2018-07-14T03:40:56.768Z,72.50
2018-07-14T03:43:03.263Z,72.90
2018-07-14T03:44:06.675Z,73.00
2018-07-14T03:45:11.762Z,73.10
2018-07-14T03:46:16.236Z,73.20
2018-07-14T03:48:22.724Z,73.60
2018-07-14T03:49:26.123Z,73.80
2018-07-14T03:53:39.648Z,74.30
2018-07-14T03:54:43.050Z,74.40
2018-07-14T03:57:53.787Z,74.50
2018-07-14T03:58:57.175Z,74.60
2018-07-14T04:00:00.588Z,74.60
2018-07-14T04:01:05.190Z,74.70
2018-07-14T04:02:08.623Z,74.80
2018-07-14T04:03:12.010Z,74.80
2018-07-14T04:04:15.391Z,75.00
2018-07-14T04:05:19.913Z,75.10
2018-07-14T04:06:25.029Z,75.10
2018-07-14T04:07:28.455Z,75.90
2018-07-14T04:08:31.852Z,75.30
2018-07-14T04:09:35.232Z,75.50
2018-07-14T04:10:40.062Z,75.60
2018-07-14T04:13:49.682Z,76.00
2018-07-14T04:14:53.112Z,76.10
2018-07-14T04:17:00.371Z,77.00
2018-07-14T04:18:05.188Z,76.50
2018-07-14T04:19:08.576Z,76.50
2018-07-14T04:20:13.625Z,76.60
2018-07-14T04:21:18.778Z,76.60
2018-07-14T04:22:22.199Z,76.70
2018-07-14T04:23:25.584Z,76.70
2018-07-14T04:24:28.971Z,76.70
2018-07-14T04:25:33.186Z,76.80
2018-07-14T04:26:36.631Z,77.00
2018-07-14T04:27:40.042Z,77.10
2018-07-14T04:28:43.435Z,77.20
2018-07-14T04:29:46.831Z,77.60
2018-07-14T04:30:52.273Z,77.70
2018-07-14T04:31:55.706Z,77.80
2018-07-14T04:32:59.088Z,78.00
2018-07-14T04:34:02.493Z,77.90
2018-07-14T04:35:05.903Z,78.20
2018-07-14T04:36:10.245Z,78.30
2018-07-14T04:38:16.749Z,79.00
2018-07-14T04:39:20.132Z,78.70
2018-07-14T04:40:24.561Z,78.70
2018-07-14T04:41:28.695Z,78.90
2018-07-14T04:42:32.201Z,78.90
2018-07-14T04:46:46.043Z,79.40
2018-07-14T04:47:49.467Z,79.50
2018-07-14T04:48:52.867Z,79.50
2018-07-14T04:49:56.252Z,79.50
2018-07-14T04:51:00.785Z,79.50
2018-07-14T04:52:04.248Z,79.50
2018-07-14T04:53:07.701Z,79.60
2018-07-14T04:54:11.063Z,79.60
2018-07-14T04:55:17.013Z,79.60
2018-07-14T04:57:24.180Z,79.70
2018-07-14T04:58:27.587Z,79.80
2018-07-14T04:59:30.984Z,79.90
2018-07-14T05:00:35.472Z,79.90
2018-07-14T05:01:38.949Z,79.90
2018-07-14T05:02:42.331Z,80.00
2018-07-14T05:03:45.735Z,80.00
2018-07-14T05:04:49.107Z,80.10
2018-07-14T05:05:53.606Z,80.10
2018-07-14T05:06:57.020Z,80.20
2018-07-14T05:08:00.415Z,80.20
2018-07-14T05:09:04.491Z,80.20
2018-07-14T05:10:09.008Z,80.30
2018-07-14T05:11:13.640Z,80.40
2018-07-14T05:12:17.055Z,80.60
2018-07-14T05:13:20.559Z,80.70
2018-07-14T05:14:23.959Z,80.80
2018-07-14T05:15:28.422Z,80.90
2018-07-14T05:16:31.836Z,81.00
2018-07-14T05:17:35.215Z,81.10
2018-07-14T05:19:41.832Z,81.30
2018-07-14T05:20:46.366Z,81.40
2018-07-14T05:22:53.604Z,81.60
2018-07-14T05:23:57.003Z,81.70
2018-07-14T05:25:00.387Z,81.80
2018-07-14T05:26:05.071Z,81.90
2018-07-14T05:27:08.488Z,81.90
2018-07-14T05:28:11.890Z,82.00
2018-07-14T05:29:15.287Z,82.10
2018-07-14T05:30:19.714Z,82.10
2018-07-14T05:31:24.473Z,82.20
2018-07-14T05:32:27.917Z,82.30
2018-07-14T05:33:31.299Z,82.40
2018-07-14T05:34:34.691Z,82.50
2018-07-14T05:35:39.707Z,82.50
2018-07-14T05:36:43.115Z,82.50
2018-07-14T05:39:52.707Z,82.80
2018-07-14T05:40:57.099Z,82.90
2018-07-14T05:42:00.531Z,83.00
2018-07-14T05:43:03.956Z,83.00
2018-07-14T05:44:07.386Z,83.00
2018-07-14T05:45:11.732Z,83.10
2018-07-14T05:46:16.188Z,83.10
2018-07-14T05:47:19.608Z,83.20
2018-07-14T05:48:23.091Z,83.30
2018-07-14T05:49:26.487Z,83.40
2018-07-14T05:50:30.797Z,83.40
2018-07-14T05:52:37.820Z,84.20
2018-07-14T05:53:41.239Z,83.70
2018-07-14T05:54:44.631Z,83.80
2018-07-14T05:55:50.194Z,83.90
2018-07-14T05:56:53.607Z,83.90
2018-07-14T05:57:57.036Z,84.10
2018-07-14T05:59:00.468Z,84.20
2018-07-14T06:00:04.185Z,84.30
2018-07-14T06:01:09.069Z,84.40
2018-07-14T06:02:12.500Z,84.50
2018-07-14T06:03:15.895Z,84.70
2018-07-14T06:04:19.279Z,84.70
2018-07-14T06:05:23.652Z,84.70
2018-07-14T06:06:28.143Z,84.70
2018-07-14T06:07:31.547Z,84.80
2018-07-14T06:08:34.955Z,84.90
2018-07-14T06:09:38.341Z,85.10
2018-07-14T06:10:42.900Z,85.10
2018-07-14T06:11:46.299Z,85.10
2018-07-14T06:12:49.719Z,85.20
2018-07-14T06:13:53.119Z,85.30
2018-07-14T06:14:56.498Z,85.40
2018-07-14T06:16:00.999Z,85.60
2018-07-14T06:17:04.432Z,85.60
2018-07-14T06:18:07.839Z,85.70
2018-07-14T06:19:11.227Z,85.90
2018-07-14T06:20:15.649Z,86.10
2018-07-14T06:21:20.030Z,86.20
2018-07-14T06:23:26.555Z,86.20
2018-07-14T06:24:29.955Z,86.40
2018-07-14T06:25:34.504Z,86.50
2018-07-14T06:26:37.971Z,86.40
2018-07-14T06:27:41.364Z,86.40
2018-07-14T06:28:44.772Z,86.40
2018-07-14T06:29:48.164Z,86.40
2018-07-14T06:30:52.547Z,86.40
2018-07-14T06:31:56.062Z,86.60
2018-07-14T06:32:59.389Z,86.80
2018-07-14T06:34:02.786Z,87.00
2018-07-14T06:35:07.895Z,87.20
2018-07-14T06:36:12.362Z,87.20
2018-07-14T06:37:15.799Z,87.30
2018-07-14T06:38:19.223Z,87.40
2018-07-14T06:39:22.599Z,87.50
2018-07-14T06:40:27.772Z,87.80
2018-07-14T06:41:31.237Z,88.00
2018-07-14T06:42:34.627Z,88.20
2018-07-14T06:43:38.060Z,88.50
2018-07-14T06:44:41.473Z,88.50
2018-07-14T06:45:45.898Z,88.50
2018-07-14T06:46:49.315Z,88.70
2018-07-14T06:47:52.722Z,88.70
2018-07-14T06:48:56.123Z,88.90
2018-07-14T06:49:59.517Z,89.50
2018-07-14T06:51:03.879Z,88.90
2018-07-14T06:52:07.491Z,89.10
2018-07-14T06:53:10.900Z,89.20
2018-07-14T06:54:14.342Z,89.30
2018-07-14T06:55:18.798Z,89.30
2018-07-14T06:56:23.380Z,89.40
2018-07-14T06:57:26.903Z,89.30
2018-07-14T06:58:30.315Z,89.30
2018-07-14T06:59:33.695Z,89.00
2018-07-14T07:00:38.001Z,88.80
2018-07-14T07:02:44.599Z,88.60
2018-07-14T07:04:51.099Z,89.30
2018-07-14T07:05:56.386Z,88.90
2018-07-14T07:06:59.795Z,88.90
2018-07-14T07:08:03.183Z,88.90
2018-07-14T07:09:06.595Z,88.80
2018-07-14T07:10:11.016Z,89.00
2018-07-14T07:11:15.531Z,89.00
2018-07-14T07:12:18.951Z,89.20
2018-07-14T07:13:22.370Z,89.10
2018-07-14T07:14:25.779Z,89.10
2018-07-14T07:15:30.276Z,89.00
2018-07-14T07:16:33.705Z,88.90
2018-07-14T07:17:37.280Z,88.80
2018-07-14T07:18:47.199Z,89.30
2018-07-14T07:19:50.599Z,88.50
2018-07-14T07:20:55.177Z,88.50
2018-07-14T07:21:58.597Z,88.50
2018-07-14T07:23:01.997Z,88.40
2018-07-14T07:24:05.415Z,88.30
2018-07-14T07:25:10.632Z,88.20
2018-07-14T07:26:15.242Z,87.90
2018-07-14T07:27:18.659Z,87.70
2018-07-14T07:28:22.088Z,87.50
2018-07-14T07:29:25.528Z,87.50
2018-07-14T07:30:30.594Z,87.50
2018-07-14T07:31:34.047Z,87.40
2018-07-14T07:33:40.611Z,87.20
2018-07-14T07:34:44.044Z,87.10
2018-07-14T07:35:48.587Z,87.20
2018-07-14T07:36:52.195Z,87.20
2018-07-14T07:37:55.628Z,87.20
2018-07-14T07:38:59.347Z,87.20
2018-07-14T07:40:02.801Z,87.10
2018-07-14T07:41:07.190Z,87.00
2018-07-14T07:42:10.725Z,87.10
2018-07-14T07:43:14.098Z,87.00
2018-07-14T07:44:17.483Z,87.00
2018-07-14T07:45:21.942Z,87.10
2018-07-14T07:46:26.412Z,87.10
2018-07-14T07:47:29.816Z,87.00
2018-07-14T07:48:33.203Z,87.00
2018-07-14T07:49:36.624Z,87.00
2018-07-14T07:50:41.001Z,86.90
2018-07-14T07:52:47.507Z,86.80
2018-07-14T07:53:50.911Z,86.90
2018-07-14T07:54:54.315Z,86.90
2018-07-14T07:55:58.700Z,86.80
2018-07-14T07:57:02.109Z,86.70
2018-07-14T07:58:05.518Z,87.00
2018-07-14T07:59:09.016Z,87.20
2018-07-14T08:00:13.504Z,87.20
2018-07-14T08:01:17.844Z,87.30
2018-07-14T08:02:21.263Z,87.30
2018-07-14T08:03:24.659Z,87.30
2018-07-14T08:04:28.063Z,87.10
2018-07-14T08:05:33.426Z,87.20
2018-07-14T08:07:42.844Z,87.10
2018-07-14T08:08:46.294Z,87.00
2018-07-14T08:09:49.657Z,87.00
2018-07-14T08:10:53.953Z,86.80
2018-07-14T08:11:57.392Z,87.00
2018-07-14T08:13:00.808Z,86.80
2018-07-14T08:14:04.606Z,86.70
2018-07-14T08:15:15.327Z,86.30
2018-07-14T08:16:20.290Z,86.20
2018-07-14T08:17:23.718Z,86.10
2018-07-14T08:18:27.115Z,86.10
2018-07-14T08:19:30.538Z,86.10
2018-07-14T08:20:35.031Z,85.80
2018-07-14T08:21:38.476Z,85.60
2018-07-14T08:22:41.935Z,85.40
2018-07-14T08:23:45.296Z,85.60
2018-07-14T08:24:48.735Z,85.70
2018-07-14T08:26:55.959Z,85.40
2018-07-14T08:27:59.367Z,84.40
2018-07-14T08:29:02.762Z,84.10
2018-07-14T08:30:07.432Z,84.10
2018-07-14T08:31:11.876Z,84.20
2018-07-14T08:32:15.318Z,84.00
2018-07-14T08:33:18.783Z,83.80
2018-07-14T08:34:22.187Z,83.80
2018-07-14T08:35:26.728Z,83.90
2018-07-14T08:36:30.413Z,83.20
2018-07-14T08:37:33.803Z,83.50
2018-07-14T08:38:37.196Z,83.60
2018-07-14T08:39:40.621Z,83.70
2018-07-14T08:40:45.224Z,83.40
2018-07-14T08:41:48.656Z,83.00
2018-07-14T08:42:52.070Z,82.50
2018-07-14T08:44:02.031Z,82.40
2018-07-14T08:45:07.631Z,82.70
2018-07-14T08:46:12.230Z,82.80
2018-07-14T08:47:15.648Z,82.70
2018-07-14T08:48:19.064Z,82.70
2018-07-14T08:49:22.477Z,82.20
2018-07-14T08:50:27.500Z,81.90
2018-07-14T08:51:30.941Z,81.60
2018-07-14T08:52:34.363Z,81.10
2018-07-14T08:53:37.755Z,80.40
2018-07-14T08:54:41.171Z,79.80
2018-07-14T08:55:45.628Z,78.90
2018-07-14T08:56:49.048Z,78.80
2018-07-14T08:57:52.435Z,79.70
2018-07-14T08:59:58.939Z,79.00
2018-07-14T09:01:03.326Z,78.80
2018-07-14T09:02:06.743Z,77.50
2018-07-14T09:03:10.136Z,77.10
2018-07-14T09:04:13.543Z,77.50
2018-07-14T09:05:18.076Z,77.10
2018-07-14T09:06:22.406Z,77.50
2018-07-14T09:07:25.842Z,77.70
2018-07-14T09:08:29.229Z,78.00
2018-07-14T09:09:32.647Z,78.60
2018-07-14T09:10:37.002Z,78.70
2018-07-14T09:12:43.515Z,78.60
2018-07-14T09:13:46.936Z,78.30
2018-07-14T09:14:50.344Z,78.40
2018-07-14T09:15:55.015Z,78.30
2018-07-14T09:16:58.504Z,78.30
2018-07-14T09:18:01.900Z,78.40
2018-07-14T09:19:05.307Z,78.00
2018-07-14T09:20:09.880Z,78.30
2018-07-14T09:21:14.441Z,78.60
2018-07-14T09:22:17.868Z,78.70
2018-07-14T09:23:21.261Z,78.60
2018-07-14T09:24:24.674Z,78.50
2018-07-14T09:25:29.179Z,78.40
2018-07-14T09:26:32.606Z,78.00
2018-07-14T09:27:36.020Z,78.00
2018-07-14T09:28:39.395Z,77.50
2018-07-14T09:29:42.784Z,76.90
2018-07-14T09:30:47.276Z,76.50
2018-07-14T09:31:50.695Z,76.50
2018-07-14T09:32:54.088Z,76.80
2018-07-14T09:35:00.595Z,77.10
2018-07-14T09:36:05.013Z,77.30
2018-07-14T09:37:08.435Z,77.60
2018-07-14T09:38:11.808Z,77.30
2018-07-14T09:39:15.205Z,77.10
2018-07-14T09:40:19.639Z,77.10
2018-07-14T09:41:23.938Z,76.90
2018-07-14T09:43:30.426Z,75.60
2018-07-14T09:44:33.865Z,75.60
2018-07-14T09:45:38.357Z,76.00
2018-07-14T09:46:41.776Z,76.40
2018-07-14T09:47:45.191Z,76.50
2018-07-14T09:49:51.652Z,76.80
2018-07-14T09:50:56.179Z,76.30
2018-07-14T09:51:59.595Z,76.00
2018-07-14T09:53:02.995Z,74.50
2018-07-14T09:54:12.831Z,73.60
2018-07-14T09:55:17.322Z,73.70
2018-07-14T09:56:21.712Z,75.00
2018-07-14T09:57:25.175Z,75.40
2018-07-14T09:58:28.724Z,75.50
2018-07-14T09:59:32.124Z,74.60
2018-07-14T10:00:36.788Z,74.00
2018-07-14T10:01:40.200Z,73.80
2018-07-14T10:02:43.591Z,73.60
2018-07-14T10:03:46.983Z,73.40
2018-07-14T10:04:50.391Z,72.90
2018-07-14T10:06:57.663Z,72.50
2018-07-14T10:08:01.094Z,72.20
2018-07-14T10:09:05.059Z,71.60
2018-07-14T10:10:08.640Z,71.60
2018-07-14T10:11:13.005Z,71.60
2018-07-14T10:12:16.419Z,71.90
2018-07-14T10:13:19.869Z,71.70
2018-07-14T10:14:23.238Z,71.30
2018-07-14T10:16:30.597Z,71.40
2018-07-14T10:17:34.025Z,70.90
2018-07-14T10:18:37.399Z,70.60
2018-07-14T10:20:45.329Z,70.40
2018-07-14T10:21:48.775Z,70.00
2018-07-14T10:26:02.558Z,68.50
2018-07-14T10:27:06.012Z,67.90
2018-07-14T10:30:16.453Z,67.50
2018-07-14T10:31:21.458Z,66.20
2018-07-14T10:32:24.883Z,65.90
2018-07-14T10:34:31.440Z,65.90
2018-07-14T10:35:36.262Z,66.50
2018-07-14T10:36:39.691Z,66.50
2018-07-14T10:37:43.091Z,66.60
2018-07-14T10:38:46.527Z,66.80
2018-07-14T10:39:49.911Z,66.50
2018-07-14T10:40:54.522Z,66.30
2018-07-14T10:41:57.949Z,66.40
2018-07-14T10:43:01.372Z,66.40
2018-07-14T10:44:04.769Z,65.50
2018-07-14T10:45:09.271Z,65.40
2018-07-14T10:47:16.664Z,64.60
2018-07-14T10:48:20.064Z,64.60
2018-07-14T10:49:23.452Z,64.80
2018-07-14T10:50:27.952Z,64.70
2018-07-14T10:52:34.482Z,65.40
2018-07-14T10:53:37.883Z,65.80
2018-07-14T10:54:41.283Z,65.90
2018-07-14T10:55:45.594Z,65.80
2018-07-14T10:56:49.007Z,65.60
2018-07-14T10:57:52.411Z,65.10
2018-07-14T10:58:55.798Z,64.90
2018-07-14T10:59:59.215Z,64.40
2018-07-14T11:01:03.991Z,64.20
2018-07-14T11:02:07.543Z,63.80
2018-07-14T11:03:10.932Z,63.70
2018-07-14T11:04:14.331Z,63.50
2018-07-14T11:05:18.653Z,63.50
2018-07-14T11:06:23.142Z,63.00
2018-07-14T11:09:39.215Z,62.10
2018-07-14T11:10:43.538Z,61.90
2018-07-14T11:12:50.096Z,60.90
2018-07-14T11:13:53.487Z,60.70
2018-07-14T11:14:56.890Z,60.60
2018-07-14T11:16:01.421Z,60.50
2018-07-14T11:17:05.011Z,60.40
2018-07-14T11:18:08.411Z,60.40
2018-07-14T11:19:11.833Z,60.40
2018-07-14T11:20:16.118Z,60.50
2018-07-14T11:21:20.717Z,60.80
2018-07-14T11:22:24.258Z,60.90
2018-07-14T11:23:27.648Z,60.70
2018-07-14T11:24:31.031Z,60.60
2018-07-14T11:25:36.272Z,60.50
2018-07-14T11:26:39.714Z,60.10
2018-07-14T11:27:43.104Z,59.60
2018-07-14T11:28:46.545Z,59.40
2018-07-14T11:29:49.984Z,59.00
2018-07-14T11:30:55.466Z,58.30
2018-07-14T11:32:05.372Z,58.60
2018-07-14T11:33:08.763Z,58.40
2018-07-14T11:34:12.158Z,58.10
2018-07-14T11:35:16.273Z,57.90
2018-07-14T11:36:21.642Z,57.90
2018-07-14T11:37:25.087Z,57.70
2018-07-14T11:38:28.468Z,57.40
2018-07-14T11:39:31.871Z,57.40
2018-07-14T11:40:36.382Z,57.50
2018-07-14T11:41:39.819Z,57.50
2018-07-14T11:42:43.217Z,57.20
2018-07-14T11:43:46.600Z,56.40
2018-07-14T11:44:49.995Z,56.00
2018-07-14T11:45:54.788Z,56.20
2018-07-14T11:46:58.243Z,56.00
2018-07-14T11:49:04.728Z,55.90
2018-07-14T11:50:08.226Z,55.50
2018-07-14T11:51:12.790Z,55.50
2018-07-14T11:53:19.536Z,55.50
2018-07-14T11:54:22.999Z,55.60
2018-07-14T11:55:27.703Z,55.50
2018-07-14T11:56:31.127Z,55.70
2018-07-14T11:57:34.527Z,55.80
2018-07-14T11:58:37.945Z,55.70
2018-07-14T12:00:45.571Z,56.00
2018-07-14T12:01:49.106Z,55.50
2018-07-14T12:02:52.507Z,55.60
2018-07-14T12:04:58.999Z,54.80
2018-07-14T12:06:03.457Z,54.80
2018-07-14T12:08:10.116Z,54.90
2018-07-14T12:09:13.560Z,54.90
2018-07-14T12:10:18.968Z,54.80
2018-07-14T12:12:26.763Z,54.60
2018-07-14T12:13:30.208Z,54.60
2018-07-14T12:14:33.615Z,54.30
2018-07-14T12:15:38.496Z,54.20
2018-07-14T12:16:41.927Z,54.20
2018-07-14T12:17:45.335Z,53.90
2018-07-14T12:19:51.829Z,53.60
2018-07-14T12:20:56.337Z,53.60
2018-07-14T12:21:59.738Z,53.60
2018-07-14T12:23:03.139Z,53.80
2018-07-14T12:24:06.855Z,54.00
2018-07-14T12:25:11.112Z,54.20
2018-07-14T12:26:15.667Z,54.50
2018-07-14T12:28:25.199Z,54.50
2018-07-14T12:29:28.597Z,53.80
2018-07-14T12:30:33.402Z,53.30
2018-07-14T12:31:36.830Z,53.10
2018-07-14T12:34:46.467Z,52.50
2018-07-14T12:39:00.051Z,51.90
2018-07-14T12:40:03.972Z,51.80
2018-07-14T12:41:08.414Z,51.90
2018-07-14T12:44:18.023Z,51.80
2018-07-14T12:45:22.663Z,51.60
2018-07-14T12:47:30.020Z,52.00
2018-07-14T12:48:33.407Z,51.30
2018-07-14T12:49:36.811Z,50.90
2018-07-14T12:50:41.569Z,51.00
2018-07-14T12:51:44.976Z,50.60
2018-07-14T12:52:48.391Z,50.20
2018-07-14T12:53:51.876Z,49.80
2018-07-14T12:54:55.211Z,49.80
2018-07-14T12:57:02.476Z,50.40
2018-07-14T12:58:05.980Z,50.50
2018-07-14T12:59:09.389Z,50.60
2018-07-14T13:00:14.114Z,50.60
2018-07-14T13:01:18.707Z,50.60
2018-07-14T13:02:22.621Z,50.40
2018-07-14T13:03:26.088Z,50.30
2018-07-14T13:05:33.635Z,50.00
2018-07-14T13:06:37.085Z,49.60
2018-07-14T13:07:40.498Z,48.90
2018-07-14T13:08:43.876Z,49.20
2018-07-14T13:09:47.275Z,49.50
2018-07-14T13:10:51.767Z,49.60
2018-07-14T13:11:55.197Z,49.30
2018-07-14T13:12:58.588Z,48.80
2018-07-14T13:14:02.015Z,48.10
2018-07-14T13:15:06.977Z,47.70
2018-07-14T13:16:11.416Z,47.80
2018-07-14T13:17:14.947Z,47.90
2018-07-14T13:18:18.396Z,48.10
2018-07-14T13:20:26.520Z,48.50
2018-07-14T13:21:30.316Z,48.60
2018-07-14T13:22:33.707Z,48.60
2018-07-14T13:23:37.120Z,48.60
2018-07-14T13:24:40.515Z,48.50
2018-07-14T13:25:45.100Z,48.10
2018-07-14T13:26:48.612Z,48.10
2018-07-14T13:27:52.004Z,47.80
2018-07-14T13:28:55.407Z,47.80
2018-07-14T13:29:58.809Z,47.80
2018-07-14T13:32:06.384Z,47.30
2018-07-14T13:33:09.823Z,47.20
2018-07-14T13:34:13.247Z,47.10
2018-07-14T13:35:18.573Z,46.90
2018-07-14T13:36:22.770Z,46.70
2018-07-14T13:37:26.259Z,46.80
2018-07-14T13:38:29.682Z,46.50
2018-07-14T13:39:33.085Z,46.20
2018-07-14T13:41:40.383Z,45.50
2018-07-14T13:43:46.847Z,45.40
2018-07-14T13:44:50.291Z,45.60
2018-07-14T13:45:54.497Z,45.70
2018-07-14T13:46:57.891Z,46.00
2018-07-14T13:48:01.283Z,46.30
2018-07-14T13:49:04.692Z,46.50
2018-07-14T13:50:09.139Z,46.50
2018-07-14T13:51:13.481Z,46.20
2018-07-14T13:53:19.998Z,45.80
2018-07-14T13:54:23.387Z,46.30
2018-07-14T13:55:27.848Z,45.20
2018-07-14T13:56:33.522Z,45.10
2018-07-14T13:57:36.943Z,45.10
2018-07-14T13:58:40.351Z,45.20
2018-07-14T13:59:43.727Z,45.10
2018-07-14T14:00:48.125Z,44.60
2018-07-14T14:01:51.531Z,44.60
2018-07-14T14:02:54.913Z,44.60
2018-07-14T14:03:58.335Z,44.60
2018-07-14T14:06:05.990Z,44.40
2018-07-14T14:07:09.395Z,44.30
2018-07-14T14:08:12.779Z,44.10
2018-07-14T14:09:16.191Z,44.10
2018-07-14T14:10:20.648Z,44.00
2018-07-14T14:11:25.178Z,43.90
2018-07-14T14:12:28.560Z,43.40
2018-07-14T14:13:31.992Z,43.30
2018-07-14T14:14:35.536Z,42.80
2018-07-14T14:15:39.945Z,42.70
2018-07-14T14:16:43.335Z,42.90
2018-07-14T14:17:46.719Z,43.10
2018-07-14T14:18:50.171Z,43.20
2018-07-14T14:19:53.613Z,43.20
2018-07-14T14:20:57.955Z,43.30
2018-07-14T14:22:01.359Z,43.40
2018-07-14T14:23:04.747Z,43.20
2018-07-14T14:24:08.157Z,43.10
2018-07-14T14:25:13.126Z,43.10
2018-07-14T14:26:17.608Z,43.10
2018-07-14T14:27:21.020Z,43.40
2018-07-14T14:28:24.399Z,43.30
2018-07-14T14:30:31.894Z,42.60
2018-07-14T14:31:35.395Z,42.40
2018-07-14T14:32:38.799Z,42.40
2018-07-14T14:33:42.211Z,42.40
2018-07-14T14:34:45.737Z,42.50
2018-07-14T14:36:54.095Z,42.30
2018-07-14T14:37:57.491Z,42.30
2018-07-14T14:39:00.999Z,42.40
2018-07-14T14:40:05.268Z,42.10
2018-07-14T14:41:09.576Z,42.00
2018-07-14T14:42:13.007Z,42.00
2018-07-14T14:43:16.395Z,42.00
2018-07-14T14:44:19.783Z,42.10
2018-07-14T14:45:24.373Z,42.20
2018-07-14T14:46:28.675Z,42.20
2018-07-14T14:47:32.059Z,41.80
2018-07-14T14:48:35.455Z,41.50
2018-07-14T14:49:38.857Z,41.30
2018-07-14T14:50:43.250Z,41.30
2018-07-14T14:51:46.923Z,41.00
2018-07-14T14:52:50.515Z,40.70
2018-07-14T14:53:53.899Z,40.60
2018-07-14T14:54:57.307Z,40.60
2018-07-14T14:56:01.760Z,40.40
2018-07-14T14:57:05.220Z,40.20
2018-07-14T14:58:08.883Z,40.10
2018-07-14T14:59:12.277Z,39.80
2018-07-14T15:00:16.472Z,39.50
2018-07-14T15:01:21.707Z,39.20
2018-07-14T15:02:25.108Z,39.30
2018-07-14T15:03:28.475Z,39.40
2018-07-14T15:04:31.879Z,39.40
2018-07-14T15:05:36.708Z,39.30
2018-07-14T15:07:43.167Z,39.50
2018-07-14T15:08:46.576Z,39.40
2018-07-14T15:09:49.963Z,39.10
2018-07-14T15:11:57.203Z,38.50
2018-07-14T15:13:00.601Z,38.40
2018-07-14T15:14:04.069Z,38.40
2018-07-14T15:15:08.654Z,38.50
2018-07-14T15:16:13.116Z,38.40
2018-07-14T15:17:16.508Z,38.40
2018-07-14T15:18:19.911Z,38.30